Portada
METAR-TAF:

METAR-TAF

Aeropuertos :

Mécheria, Argelia

latitud: 34-56N, longitud: 000-26W, altitud: 1149 m

Observación

El informe se hizo hace 4 horas y 29 minutos, a las 01:00 UTC
Viento 12 kt del norte
Temperatura 13°C
Humedad 82%
Presión 1016 hPa
Visibilidad: 8000 m
Escasas nubes a una altura de 2600 ft
Nubes dispersas a una altura de 10000 ft

METAR: DAAY 210100Z 35012KT 8000 FEW026 SCT100 13/10 Q1016

Hora: 06:29 (05:29 UTC)

Pronóstico

El informe se hizo hace 6 horas y 29 minutos, a las 23:00 UTC
Pronóstico válido del 21 a las 00 UTC al 21 a las 09 UTC
Viento 14 kt del norte
Visibilidad 10 km o más
Escasas nubes a una altura de 2600 ft
Nubes dispersas a una altura de 23300 ft
Evolucionando progresivamente
del 21 a las 01 UTC al 21 a las 03 UTC
Viento 2 kt con dirección variable

TAF: DAAY 202300Z 2100/2109 35014KT 9999 FEW026 SCT233 BECMG 2101/2103 VRB02KT

Observaciones y pronósticos meteorológicos de más de 4000 aeropuertos (mensajes METAR y TAF).

Los puntos amarillos y rojos representan las estaciones disponibles.

Ponga el ratón en el punto deseado para ver el nombre de la estación.

Haga clic para ver las observaciones y los pronósticos meteorológicos.

Para cambiar el mapa : haga clic en los botones verdes con una cruz de color negro para hacer un zoom, en el botón verde con un guión para alejar o en las flechas verdes para mapas adyacentes.


METAR-TAF: